VKG4EL ENGM-ENZV
Flight info
| Callsign | VKG4EL |
|---|---|
| Flight time | 0h 44m |
| Altitude | 32000 |
| Route | ATLAP DCT IPMOD DCT ROPNO |
| Aircraft | A339/H-SADE1E2E3GHIJ3J5M1P2RWXY/LB2D1 |
Departure
| Time | 2026-03-27 15:21 |
|---|---|
| Airport | Oslo-Gardermoen International Airport (ENGM) |
Arrival
| Time | 2026-03-27 16:06 |
|---|---|
| Airport | Stavanger Airport, Sola (ENZV) |
| Time | Latitude | Longitude | Altitude | Speed | Heading |
|---|---|---|---|---|---|
| 2026-03-27 15:02 | 60.19396 | 11.10652 | 715 ft | 0 kts | 196° |
| 2026-03-27 15:09 | 60.19403 | 11.10657 | 689 ft | 1 kts | 191° |
| 2026-03-27 15:09 | 60.19419 | 11.10653 | 682 ft | 2 kts | 235° |
| 2026-03-27 15:10 | 60.19424 | 11.10656 | 686 ft | 1 kts | 270° |
| 2026-03-27 15:10 | 60.19422 | 11.10684 | 683 ft | 1 kts | 210° |
| 2026-03-27 15:10 | 60.19424 | 11.10686 | 682 ft | 0 kts | 209° |
| 2026-03-27 15:10 | 60.19423 | 11.10686 | 680 ft | 0 kts | 209° |
| 2026-03-27 15:11 | 60.19424 | 11.10686 | 681 ft | 0 kts | 209° |
| 2026-03-27 15:12 | 60.19423 | 11.10686 | 680 ft | 0 kts | 209° |
| 2026-03-27 15:12 | 60.19424 | 11.10687 | 680 ft | 1 kts | 209° |
| 2026-03-27 15:12 | 60.19435 | 11.10701 | 682 ft | 1 kts | 172° |
| 2026-03-27 15:13 | 60.19449 | 11.10697 | 682 ft | 2 kts | 165° |
| 2026-03-27 15:13 | 60.19460 | 11.10688 | 681 ft | 2 kts | 195° |
| 2026-03-27 15:13 | 60.19463 | 11.10690 | 680 ft | 0 kts | 195° |
| 2026-03-27 15:16 | 60.19457 | 11.10694 | 680 ft | 1 kts | 176° |
| 2026-03-27 15:17 | 60.19451 | 11.10728 | 680 ft | 3 kts | 111° |
| 2026-03-27 15:17 | 60.19467 | 11.10812 | 682 ft | 10 kts | 72° |
| 2026-03-27 15:17 | 60.19453 | 11.10965 | 685 ft | 14 kts | 103° |
| 2026-03-27 15:17 | 60.19434 | 11.11156 | 685 ft | 11 kts | 102° |
| 2026-03-27 15:18 | 60.19459 | 11.11280 | 684 ft | 11 kts | 35° |
| 2026-03-27 15:18 | 60.19571 | 11.11361 | 685 ft | 18 kts | 17° |
| 2026-03-27 15:18 | 60.19689 | 11.11434 | 685 ft | 19 kts | 17° |
| 2026-03-27 15:18 | 60.19820 | 11.11513 | 688 ft | 21 kts | 17° |
| 2026-03-27 15:19 | 60.19957 | 11.11592 | 689 ft | 19 kts | 16° |
| 2026-03-27 15:19 | 60.20082 | 11.11667 | 693 ft | 20 kts | 17° |
| 2026-03-27 15:19 | 60.20159 | 11.11740 | 688 ft | 6 kts | 55° |
| 2026-03-27 15:19 | 60.20164 | 11.11845 | 695 ft | 8 kts | 96° |
| 2026-03-27 15:20 | 60.20148 | 11.11985 | 693 ft | 13 kts | 104° |
| 2026-03-27 15:20 | 60.20109 | 11.12164 | 686 ft | 15 kts | 127° |
| 2026-03-27 15:20 | 60.20014 | 11.12190 | 688 ft | 15 kts | 190° |
| 2026-03-27 15:20 | 60.19865 | 11.12111 | 691 ft | 49 kts | 196° |
| 2026-03-27 15:21 | 60.19511 | 11.11894 | 687 ft | 63 kts | 195° |
| 2026-03-27 15:21 | 60.18806 | 11.11493 | 686 ft | 141 kts | 196° |
| 2026-03-27 15:21 | 60.17757 | 11.10893 | 1161 ft | 160 kts | 195° |
| 2026-03-27 15:21 | 60.16719 | 11.10309 | 2177 ft | 148 kts | 196° |
| 2026-03-27 15:22 | 60.15734 | 11.09786 | 2965 ft | 151 kts | 198° |
| 2026-03-27 15:22 | 60.14663 | 11.09182 | 3457 ft | 165 kts | 199° |
| 2026-03-27 15:22 | 60.13565 | 11.08519 | 4154 ft | 165 kts | 200° |
| 2026-03-27 15:22 | 60.12523 | 11.07853 | 4868 ft | 161 kts | 201° |
| 2026-03-27 15:23 | 60.11428 | 11.07103 | 5348 ft | 170 kts | 202° |
| 2026-03-27 15:23 | 60.10272 | 11.06320 | 5815 ft | 184 kts | 197° |
| 2026-03-27 15:23 | 60.08913 | 11.06172 | 6127 ft | 207 kts | 181° |
| 2026-03-27 15:23 | 60.07431 | 11.06352 | 6302 ft | 224 kts | 182° |
| 2026-03-27 15:24 | 60.05890 | 11.05718 | 6394 ft | 231 kts | 208° |
| 2026-03-27 15:24 | 60.04661 | 11.03651 | 6543 ft | 237 kts | 233° |
| 2026-03-27 15:24 | 60.03822 | 11.00797 | 6777 ft | 240 kts | 242° |
| 2026-03-27 15:24 | 60.03186 | 10.97689 | 6937 ft | 247 kts | 255° |
| 2026-03-27 15:25 | 60.02827 | 10.94276 | 7175 ft | 253 kts | 256° |
| 2026-03-27 15:25 | 60.02485 | 10.90806 | 7527 ft | 254 kts | 257° |
| 2026-03-27 15:25 | 60.02149 | 10.87339 | 7842 ft | 255 kts | 257° |
| 2026-03-27 15:25 | 60.01808 | 10.83840 | 8185 ft | 256 kts | 257° |
| 2026-03-27 15:26 | 60.01463 | 10.80343 | 8546 ft | 257 kts | 256° |
| 2026-03-27 15:26 | 60.01114 | 10.76830 | 8923 ft | 258 kts | 256° |
| 2026-03-27 15:26 | 60.00760 | 10.73291 | 9269 ft | 260 kts | 256° |
| 2026-03-27 15:26 | 60.00401 | 10.69743 | 9615 ft | 262 kts | 256° |
| 2026-03-27 15:27 | 60.00040 | 10.66175 | 9973 ft | 262 kts | 256° |
| 2026-03-27 15:27 | 59.99677 | 10.62600 | 10260 ft | 264 kts | 256° |
| 2026-03-27 15:27 | 59.99238 | 10.59030 | 10538 ft | 264 kts | 252° |
| 2026-03-27 15:27 | 59.98719 | 10.55480 | 10880 ft | 266 kts | 251° |
| 2026-03-27 15:28 | 59.98174 | 10.51874 | 11315 ft | 281 kts | 251° |
| 2026-03-27 15:28 | 59.97594 | 10.47982 | 11533 ft | 304 kts | 251° |
| 2026-03-27 15:28 | 59.97158 | 10.44988 | 11786 ft | 314 kts | 252° |
| 2026-03-27 15:29 | 59.96777 | 10.42315 | 12197 ft | 317 kts | 252° |
| 2026-03-27 15:29 | 59.96179 | 10.38072 | 12953 ft | 319 kts | 252° |
| 2026-03-27 15:29 | 59.95572 | 10.33770 | 13647 ft | 323 kts | 252° |
| 2026-03-27 15:29 | 59.94961 | 10.29461 | 14308 ft | 325 kts | 252° |
| 2026-03-27 15:30 | 59.94338 | 10.25102 | 14866 ft | 329 kts | 252° |
| 2026-03-27 15:30 | 59.93707 | 10.20698 | 15565 ft | 330 kts | 252° |
| 2026-03-27 15:30 | 59.93072 | 10.16284 | 16201 ft | 333 kts | 252° |
| 2026-03-27 15:30 | 59.92426 | 10.11811 | 16793 ft | 337 kts | 252° |
| 2026-03-27 15:31 | 59.91777 | 10.07323 | 17461 ft | 338 kts | 252° |
| 2026-03-27 15:31 | 59.91121 | 10.02796 | 18070 ft | 342 kts | 252° |
| 2026-03-27 15:31 | 59.90457 | 9.98236 | 18638 ft | 344 kts | 252° |
| 2026-03-27 15:31 | 59.89789 | 9.93654 | 19240 ft | 345 kts | 252° |
| 2026-03-27 15:32 | 59.89117 | 9.89053 | 19844 ft | 347 kts | 252° |
| 2026-03-27 15:32 | 59.88446 | 9.84479 | 20381 ft | 349 kts | 252° |
| 2026-03-27 15:32 | 59.87761 | 9.79822 | 20741 ft | 351 kts | 252° |
| 2026-03-27 15:32 | 59.87073 | 9.75160 | 20851 ft | 350 kts | 252° |
| 2026-03-27 15:33 | 59.86382 | 9.70488 | 20847 ft | 351 kts | 252° |
| 2026-03-27 15:33 | 59.85691 | 9.65826 | 20848 ft | 351 kts | 252° |
| 2026-03-27 15:33 | 59.85001 | 9.61180 | 20851 ft | 351 kts | 252° |
| 2026-03-27 15:33 | 59.84306 | 9.56518 | 20852 ft | 351 kts | 252° |
| 2026-03-27 15:34 | 59.83614 | 9.51886 | 20862 ft | 350 kts | 251° |
| 2026-03-27 15:34 | 59.82918 | 9.47238 | 20857 ft | 350 kts | 251° |
| 2026-03-27 15:34 | 59.82221 | 9.42592 | 20865 ft | 350 kts | 251° |
| 2026-03-27 15:34 | 59.81522 | 9.37961 | 20868 ft | 349 kts | 251° |
| 2026-03-27 15:35 | 59.80823 | 9.33342 | 20872 ft | 350 kts | 251° |
| 2026-03-27 15:35 | 59.80129 | 9.28772 | 20874 ft | 349 kts | 251° |
| 2026-03-27 15:35 | 59.79417 | 9.24088 | 20879 ft | 349 kts | 251° |
| 2026-03-27 15:35 | 59.78723 | 9.19528 | 20881 ft | 349 kts | 251° |
| 2026-03-27 15:36 | 59.78019 | 9.14921 | 20880 ft | 349 kts | 251° |
| 2026-03-27 15:36 | 59.77332 | 9.10437 | 20876 ft | 349 kts | 251° |
| 2026-03-27 15:37 | 59.76785 | 9.06875 | 20880 ft | 348 kts | 251° |
| 2026-03-27 15:37 | 59.76078 | 9.02286 | 20878 ft | 348 kts | 251° |
| 2026-03-27 15:37 | 59.75369 | 8.97689 | 20883 ft | 349 kts | 251° |
| 2026-03-27 15:38 | 59.74658 | 8.93097 | 20870 ft | 348 kts | 251° |
| 2026-03-27 15:38 | 59.73951 | 8.88542 | 20874 ft | 346 kts | 250° |
| 2026-03-27 15:38 | 59.73235 | 8.83950 | 20870 ft | 348 kts | 250° |
| 2026-03-27 15:38 | 59.72521 | 8.79373 | 20871 ft | 347 kts | 250° |
| 2026-03-27 15:39 | 59.71809 | 8.74817 | 20865 ft | 346 kts | 250° |
| 2026-03-27 15:39 | 59.71094 | 8.70257 | 20862 ft | 350 kts | 250° |
| 2026-03-27 15:39 | 59.70361 | 8.65607 | 20828 ft | 354 kts | 250° |
| 2026-03-27 15:39 | 59.69632 | 8.60980 | 20459 ft | 353 kts | 250° |
| 2026-03-27 15:40 | 59.68899 | 8.56345 | 19825 ft | 353 kts | 250° |
| 2026-03-27 15:40 | 59.68154 | 8.51652 | 19293 ft | 369 kts | 250° |
| 2026-03-27 15:40 | 59.67355 | 8.46657 | 19220 ft | 391 kts | 250° |
| 2026-03-27 15:40 | 59.66521 | 8.41436 | 19192 ft | 402 kts | 250° |
| 2026-03-27 15:41 | 59.65685 | 8.36195 | 19157 ft | 395 kts | 250° |
| 2026-03-27 15:41 | 59.64871 | 8.31089 | 19010 ft | 380 kts | 250° |
| 2026-03-27 15:41 | 59.64101 | 8.26275 | 18866 ft | 363 kts | 250° |
| 2026-03-27 15:41 | 59.63359 | 8.21649 | 18855 ft | 352 kts | 249° |
| 2026-03-27 15:42 | 59.62599 | 8.16965 | 18840 ft | 360 kts | 249° |
| 2026-03-27 15:42 | 59.61839 | 8.12289 | 18674 ft | 355 kts | 249° |
| 2026-03-27 15:42 | 59.61086 | 8.07660 | 18161 ft | 353 kts | 249° |
| 2026-03-27 15:42 | 59.60332 | 8.03049 | 17434 ft | 350 kts | 249° |
| 2026-03-27 15:43 | 59.58850 | 7.93995 | 15727 ft | 343 kts | 249° |
| 2026-03-27 15:43 | 59.58117 | 7.89539 | 14953 ft | 339 kts | 249° |
| 2026-03-27 15:43 | 59.57400 | 7.85180 | 14445 ft | 334 kts | 249° |
| 2026-03-27 15:44 | 59.56660 | 7.80707 | 14187 ft | 352 kts | 249° |
| 2026-03-27 15:44 | 59.55893 | 7.76087 | 13931 ft | 353 kts | 249° |
| 2026-03-27 15:44 | 59.55137 | 7.71516 | 13702 ft | 352 kts | 249° |
| 2026-03-27 15:44 | 59.54375 | 7.66906 | 13449 ft | 352 kts | 249° |
| 2026-03-27 15:45 | 59.53614 | 7.62344 | 13172 ft | 349 kts | 249° |
| 2026-03-27 15:45 | 59.52855 | 7.57820 | 12901 ft | 348 kts | 249° |
| 2026-03-27 15:45 | 59.52096 | 7.53297 | 12638 ft | 346 kts | 249° |
| 2026-03-27 15:45 | 59.51347 | 7.48858 | 12368 ft | 345 kts | 249° |
| 2026-03-27 15:46 | 59.50592 | 7.44384 | 12112 ft | 343 kts | 249° |
| 2026-03-27 15:46 | 59.49840 | 7.39930 | 11840 ft | 342 kts | 249° |
| 2026-03-27 15:46 | 59.49092 | 7.35509 | 11598 ft | 340 kts | 249° |
| 2026-03-27 15:46 | 59.48344 | 7.31089 | 11375 ft | 339 kts | 249° |
| 2026-03-27 15:47 | 59.47596 | 7.26693 | 11339 ft | 338 kts | 249° |
| 2026-03-27 15:47 | 59.46848 | 7.22305 | 11340 ft | 339 kts | 249° |
| 2026-03-27 15:47 | 59.46099 | 7.17924 | 11347 ft | 339 kts | 249° |
| 2026-03-27 15:47 | 59.45344 | 7.13518 | 11343 ft | 340 kts | 249° |
| 2026-03-27 15:48 | 59.44587 | 7.09113 | 11337 ft | 340 kts | 249° |
| 2026-03-27 15:48 | 59.43828 | 7.04714 | 11341 ft | 340 kts | 249° |
| 2026-03-27 15:48 | 59.43089 | 7.00433 | 11338 ft | 320 kts | 249° |
| 2026-03-27 15:48 | 59.42382 | 6.96325 | 11342 ft | 318 kts | 249° |
| 2026-03-27 15:49 | 59.41672 | 6.92214 | 11343 ft | 313 kts | 249° |
| 2026-03-27 15:49 | 59.40996 | 6.88308 | 11338 ft | 289 kts | 249° |
| 2026-03-27 15:49 | 59.40372 | 6.84715 | 11216 ft | 268 kts | 249° |
| 2026-03-27 15:49 | 59.39796 | 6.81418 | 11058 ft | 249 kts | 249° |
| 2026-03-27 15:50 | 59.39251 | 6.78298 | 10741 ft | 237 kts | 249° |
| 2026-03-27 15:50 | 59.38713 | 6.75241 | 10440 ft | 236 kts | 249° |
| 2026-03-27 15:50 | 59.38174 | 6.72203 | 10153 ft | 232 kts | 249° |
| 2026-03-27 15:50 | 59.37663 | 6.69281 | 9826 ft | 221 kts | 249° |
| 2026-03-27 15:51 | 59.37175 | 6.66498 | 9492 ft | 216 kts | 249° |
| 2026-03-27 15:51 | 59.36683 | 6.63709 | 9097 ft | 215 kts | 249° |
| 2026-03-27 15:51 | 59.36200 | 6.60956 | 8721 ft | 215 kts | 249° |
| 2026-03-27 15:51 | 59.35706 | 6.58179 | 8365 ft | 214 kts | 249° |
| 2026-03-27 15:52 | 59.35221 | 6.55462 | 7982 ft | 209 kts | 249° |
| 2026-03-27 15:52 | 59.34751 | 6.52805 | 7606 ft | 205 kts | 249° |
| 2026-03-27 15:52 | 59.34287 | 6.50182 | 7274 ft | 204 kts | 249° |
| 2026-03-27 15:52 | 59.33819 | 6.47554 | 6920 ft | 204 kts | 249° |
| 2026-03-27 15:53 | 59.33356 | 6.44930 | 6574 ft | 204 kts | 249° |
| 2026-03-27 15:53 | 59.32894 | 6.42318 | 6247 ft | 201 kts | 249° |
| 2026-03-27 15:53 | 59.32432 | 6.39716 | 5896 ft | 204 kts | 249° |
| 2026-03-27 15:53 | 59.31957 | 6.37054 | 5557 ft | 209 kts | 248° |
| 2026-03-27 15:54 | 59.31475 | 6.34381 | 5211 ft | 206 kts | 248° |
| 2026-03-27 15:54 | 59.30995 | 6.31724 | 4867 ft | 209 kts | 248° |
| 2026-03-27 15:54 | 59.30515 | 6.29081 | 4480 ft | 205 kts | 249° |
| 2026-03-27 15:54 | 59.30046 | 6.26392 | 4154 ft | 211 kts | 249° |
| 2026-03-27 15:55 | 59.29533 | 6.23604 | 3828 ft | 240 kts | 248° |
| 2026-03-27 15:55 | 59.28971 | 6.20536 | 3470 ft | 232 kts | 249° |
| 2026-03-27 15:55 | 59.28411 | 6.17427 | 3101 ft | 252 kts | 249° |
| 2026-03-27 15:55 | 59.27836 | 6.14208 | 2913 ft | 247 kts | 249° |
| 2026-03-27 15:56 | 59.27262 | 6.11015 | 3022 ft | 249 kts | 249° |
| 2026-03-27 15:56 | 59.26686 | 6.07805 | 2913 ft | 250 kts | 249° |
| 2026-03-27 15:56 | 59.26115 | 6.04626 | 2834 ft | 250 kts | 249° |
| 2026-03-27 15:56 | 59.25536 | 6.01424 | 2810 ft | 247 kts | 248° |
| 2026-03-27 15:57 | 59.24958 | 5.98242 | 2815 ft | 251 kts | 248° |
| 2026-03-27 15:57 | 59.24376 | 5.95048 | 2811 ft | 247 kts | 248° |
| 2026-03-27 15:57 | 59.23793 | 5.91881 | 2808 ft | 246 kts | 248° |
| 2026-03-27 15:57 | 59.23211 | 5.88718 | 2814 ft | 248 kts | 248° |
| 2026-03-27 15:58 | 59.22817 | 5.86577 | 2814 ft | 246 kts | 248° |
| 2026-03-27 15:58 | 59.22244 | 5.83469 | 2811 ft | 246 kts | 247° |
| 2026-03-27 15:58 | 59.21341 | 5.80687 | 2814 ft | 244 kts | 223° |
| 2026-03-27 15:58 | 59.19896 | 5.79009 | 2813 ft | 244 kts | 197° |
| 2026-03-27 15:59 | 59.18212 | 5.78592 | 2805 ft | 245 kts | 185° |
| 2026-03-27 15:59 | 59.16588 | 5.78365 | 2810 ft | 222 kts | 185° |
| 2026-03-27 15:59 | 59.15115 | 5.78120 | 2810 ft | 207 kts | 186° |
| 2026-03-27 15:59 | 59.13646 | 5.77840 | 2809 ft | 212 kts | 187° |
| 2026-03-27 16:00 | 59.12164 | 5.77546 | 2805 ft | 215 kts | 187° |
| 2026-03-27 16:00 | 59.10661 | 5.77229 | 2805 ft | 215 kts | 187° |
| 2026-03-27 16:00 | 59.09183 | 5.76912 | 2805 ft | 213 kts | 188° |
| 2026-03-27 16:00 | 59.07770 | 5.76616 | 2826 ft | 196 kts | 188° |
| 2026-03-27 16:01 | 59.06358 | 5.76326 | 2818 ft | 208 kts | 188° |
| 2026-03-27 16:01 | 59.05039 | 5.75399 | 2842 ft | 204 kts | 216° |
| 2026-03-27 16:01 | 59.04165 | 5.73266 | 2834 ft | 204 kts | 246° |
| 2026-03-27 16:01 | 59.03684 | 5.70650 | 2838 ft | 204 kts | 251° |
| 2026-03-27 16:02 | 59.03288 | 5.68119 | 2814 ft | 188 kts | 252° |
| 2026-03-27 16:02 | 59.02869 | 5.65821 | 2753 ft | 174 kts | 242° |
| 2026-03-27 16:02 | 59.02079 | 5.64197 | 2617 ft | 162 kts | 211° |
| 2026-03-27 16:02 | 59.01046 | 5.63531 | 2437 ft | 155 kts | 192° |
| 2026-03-27 16:03 | 58.99993 | 5.63396 | 2244 ft | 148 kts | 183° |
| 2026-03-27 16:03 | 58.98970 | 5.63448 | 2041 ft | 149 kts | 180° |
| 2026-03-27 16:03 | 58.97940 | 5.63479 | 1853 ft | 143 kts | 182° |
| 2026-03-27 16:03 | 58.96990 | 5.63510 | 1655 ft | 130 kts | 182° |
| 2026-03-27 16:04 | 58.96036 | 5.63528 | 1470 ft | 140 kts | 183° |
| 2026-03-27 16:04 | 58.95091 | 5.63563 | 1268 ft | 131 kts | 182° |
| 2026-03-27 16:04 | 58.94206 | 5.63591 | 1103 ft | 131 kts | 184° |
| 2026-03-27 16:04 | 58.93240 | 5.63607 | 868 ft | 138 kts | 182° |
| 2026-03-27 16:05 | 58.92330 | 5.63642 | 672 ft | 124 kts | 180° |
| 2026-03-27 16:05 | 58.91457 | 5.63673 | 496 ft | 132 kts | 180° |
| 2026-03-27 16:05 | 58.90539 | 5.63696 | 314 ft | 127 kts | 181° |
| 2026-03-27 16:05 | 58.89666 | 5.63723 | 151 ft | 128 kts | 181° |
| 2026-03-27 16:06 | 58.88762 | 5.63737 | 43 ft | 128 kts | 181° |
| 2026-03-27 16:06 | 58.87957 | 5.63763 | 38 ft | 92 kts | 178° |
| 2026-03-27 16:06 | 58.87649 | 5.63773 | 40 ft | 2 kts | 180° |
| 2026-03-27 16:06 | 58.87688 | 5.63773 | 39 ft | 7 kts | 180° |
| 2026-03-27 16:07 | 58.87734 | 5.63774 | 39 ft | 1 kts | 172° |
| 2026-03-27 16:07 | 58.87729 | 5.63770 | 39 ft | 0 kts | 186° |